sensor_id;sensor_type;location;lat;lon;timestamp;pressure;altitude;pressure_sealevel;temperature;humidity
48563;BME280;34981;49.104;11.396;2023-04-21T00:01:16;99806.91;;;5.89;100.00
48563;BME280;34981;49.104;11.396;2023-04-21T00:03:44;99810.41;;;5.89;100.00
48563;BME280;34981;49.104;11.396;2023-04-21T00:06:12;99810.41;;;5.89;100.00
48563;BME280;34981;49.104;11.396;2023-04-21T00:08:39;99793.84;;;5.76;100.00
48563;BME280;34981;49.104;11.396;2023-04-21T00:11:06;99795.09;;;5.72;100.00
48563;BME280;34981;49.104;11.396;2023-04-21T00:13:34;99800.03;;;5.76;100.00
48563;BME280;34981;49.104;11.396;2023-04-21T00:16:02;99803.94;;;5.82;100.00
48563;BME280;34981;49.104;11.396;2023-04-21T00:18:29;99804.06;;;5.80;100.00
48563;BME280;34981;49.104;11.396;2023-04-21T00:20:56;99812.34;;;5.87;100.00
48563;BME280;34981;49.104;11.396;2023-04-21T00:23:23;99792.88;;;5.77;100.00
48563;BME280;34981;49.104;11.396;2023-04-21T00:25:51;99803.09;;;5.81;100.00
48563;BME280;34981;49.104;11.396;2023-04-21T00:28:18;99800.97;;;5.85;100.00
48563;BME280;34981;49.104;11.396;2023-04-21T00:30:45;99793.97;;;5.84;100.00
48563;BME280;34981;49.104;11.396;2023-04-21T00:33:12;99781.16;;;5.78;100.00
48563;BME280;34981;49.104;11.396;2023-04-21T00:35:39;99780.31;;;5.77;100.00
48563;BME280;34981;49.104;11.396;2023-04-21T00:38:06;99778.22;;;5.81;100.00
48563;BME280;34981;49.104;11.396;2023-04-21T00:40:35;99762.78;;;5.75;100.00
48563;BME280;34981;49.104;11.396;2023-04-21T00:43:06;99760.72;;;5.69;100.00
48563;BME280;34981;49.104;11.396;2023-04-21T00:45:33;99760.72;;;5.69;100.00
48563;BME280;34981;49.104;11.396;2023-04-21T00:48:01;99775.28;;;5.74;100.00
48563;BME280;34981;49.104;11.396;2023-04-21T00:50:29;99780.63;;;5.74;100.00
48563;BME280;34981;49.104;11.396;2023-04-21T00:52:57;99781.16;;;5.78;100.00
48563;BME280;34981;49.104;11.396;2023-04-21T00:55:24;99788.19;;;5.79;100.00
48563;BME280;34981;49.104;11.396;2023-04-21T00:57:52;99783.44;;;5.73;100.00
48563;BME280;34981;49.104;11.396;2023-04-21T01:00:19;99788.50;;;5.76;100.00
48563;BME280;34981;49.104;11.396;2023-04-21T01:02:46;99784.28;;;5.73;100.00
48563;BME280;34981;49.104;11.396;2023-04-21T01:05:14;99786.97;;;5.73;100.00
48563;BME280;34981;49.104;11.396;2023-04-21T01:07:42;99779.22;;;5.70;100.00
48563;BME280;34981;49.104;11.396;2023-04-21T01:10:10;99782.59;;;5.72;100.00
48563;BME280;34981;49.104;11.396;2023-04-21T01:12:43;99787.09;;;5.72;100.00
48563;BME280;34981;49.104;11.396;2023-04-21T01:15:12;99775.72;;;5.70;100.00
48563;BME280;34981;49.104;11.396;2023-04-21T01:17:39;99780.91;;;5.71;100.00
48563;BME280;34981;49.104;11.396;2023-04-21T01:20:08;99790.75;;;5.71;100.00
48563;BME280;34981;49.104;11.396;2023-04-21T01:22:37;99791.59;;;5.71;100.00
48563;BME280;34981;49.104;11.396;2023-04-21T01:25:04;99789.91;;;5.70;100.00
48563;BME280;34981;49.104;11.396;2023-04-21T01:27:31;99794.41;;;5.70;100.00
48563;BME280;34981;49.104;11.396;2023-04-21T01:29:59;99787.69;;;5.66;100.00
48563;BME280;34981;49.104;11.396;2023-04-21T01:32:27;99775.34;;;5.55;100.00
48563;BME280;34981;49.104;11.396;2023-04-21T01:34:57;99768.78;;;5.40;100.00
48563;BME280;34981;49.104;11.396;2023-04-21T01:37:28;99782.41;;;5.46;100.00
48563;BME280;34981;49.104;11.396;2023-04-21T01:39:57;99781.09;;;5.51;100.00
48563;BME280;34981;49.104;11.396;2023-04-21T01:42:26;99794.84;;;5.56;100.00
48563;BME280;34981;49.104;11.396;2023-04-21T01:44:54;99792.19;;;5.56;100.00
48563;BME280;34981;49.104;11.396;2023-04-21T01:47:22;99792.50;;;5.53;100.00
48563;BME280;34981;49.104;11.396;2023-04-21T01:49:50;99793.88;;;5.57;100.00
48563;BME280;34981;49.104;11.396;2023-04-21T01:52:17;99775.91;;;5.49;100.00
48563;BME280;34981;49.104;11.396;2023-04-21T01:54:45;99759.25;;;5.28;100.00
48563;BME280;34981;49.104;11.396;2023-04-21T01:57:13;99753.66;;;5.12;100.00
48563;BME280;34981;49.104;11.396;2023-04-21T01:59:40;99750.69;;;5.05;100.00
48563;BME280;34981;49.104;11.396;2023-04-21T02:02:08;99748.34;;;5.02;100.00
48563;BME280;34981;49.104;11.396;2023-04-21T02:04:36;99744.69;;;5.03;100.00
48563;BME280;34981;49.104;11.396;2023-04-21T02:07:03;99724.19;;;4.84;100.00
48563;BME280;34981;49.104;11.396;2023-04-21T02:09:31;99718.16;;;4.82;100.00
48563;BME280;34981;49.104;11.396;2023-04-21T02:11:59;99722.94;;;4.79;100.00
48563;BME280;34981;49.104;11.396;2023-04-21T02:14:26;99716.38;;;4.73;100.00
48563;BME280;34981;49.104;11.396;2023-04-21T02:16:53;99727.72;;;4.85;100.00
48563;BME280;34981;49.104;11.396;2023-04-21T02:19:22;99713.25;;;4.78;100.00
48563;BME280;34981;49.104;11.396;2023-04-21T02:21:49;99711.72;;;4.75;100.00
48563;BME280;34981;49.104;11.396;2023-04-21T02:24:17;99716.22;;;4.75;100.00
48563;BME280;34981;49.104;11.396;2023-04-21T02:26:45;99714.53;;;4.74;100.00
48563;BME280;34981;49.104;11.396;2023-04-21T02:29:12;99709.34;;;4.62;100.00
48563;BME280;34981;49.104;11.396;2023-04-21T02:31:39;99713.28;;;4.58;100.00
48563;BME280;34981;49.104;11.396;2023-04-21T02:34:25;99685.06;;;4.56;100.00
48563;BME280;34981;49.104;11.396;2023-04-21T02:36:52;99706.97;;;4.59;100.00
48563;BME280;34981;49.104;11.396;2023-04-21T02:39:19;99712.00;;;4.62;100.00
48563;BME280;34981;49.104;11.396;2023-04-21T02:41:47;99709.78;;;4.67;100.00
48563;BME280;34981;49.104;11.396;2023-04-21T02:44:14;99716.22;;;4.75;100.00
48563;BME280;34981;49.104;11.396;2023-04-21T02:46:41;99715.53;;;4.73;100.00
48563;BME280;34981;49.104;11.396;2023-04-21T02:49:09;99726.31;;;4.81;100.00
48563;BME280;34981;49.104;11.396;2023-04-21T02:51:36;99721.00;;;4.81;100.00
48563;BME280;34981;49.104;11.396;2023-04-21T02:54:03;99724.34;;;4.83;100.00
48563;BME280;34981;49.104;11.396;2023-04-21T03:07:11;100200.97;;;5.00;100.00
48563;BME280;34981;49.104;11.396;2023-04-21T03:09:39;100208.84;;;5.01;100.00
48563;BME280;34981;49.104;11.396;2023-04-21T03:12:06;100211.19;;;4.95;100.00
48563;BME280;34981;49.104;11.396;2023-04-21T03:14:35;100192.75;;;4.92;100.00
48563;BME280;34981;49.104;11.396;2023-04-21T03:17:02;100175.59;;;4.85;100.00
48563;BME280;34981;49.104;11.396;2023-04-21T03:19:30;100156.19;;;4.83;100.00
48563;BME280;34981;49.104;11.396;2023-04-21T03:21:57;100137.38;;;4.75;100.00
48563;BME280;34981;49.104;11.396;2023-04-21T03:24:25;100124.28;;;4.72;100.00
48563;BME280;34981;49.104;11.396;2023-04-21T03:26:52;100100.56;;;4.68;100.00
48563;BME280;34981;49.104;11.396;2023-04-21T03:29:19;100103.94;;;4.70;100.00
48563;BME280;34981;49.104;11.396;2023-04-21T03:31:47;100099.34;;;4.73;100.00
48563;BME280;34981;49.104;11.396;2023-04-21T03:34:15;100075.88;;;4.66;100.00
48563;BME280;34981;49.104;11.396;2023-04-21T03:36:42;100064.25;;;4.67;100.00
48563;BME280;34981;49.104;11.396;2023-04-21T03:39:09;100061.03;;;4.74;100.00
48563;BME280;34981;49.104;11.396;2023-04-21T03:41:48;100024.53;;;4.64;100.00
48563;BME280;34981;49.104;11.396;2023-04-21T03:44:15;100039.84;;;4.72;100.00
48563;BME280;34981;49.104;11.396;2023-04-21T03:46:42;100014.03;;;4.73;100.00
48563;BME280;34981;49.104;11.396;2023-04-21T03:49:09;99987.56;;;4.50;100.00
48563;BME280;34981;49.104;11.396;2023-04-21T03:51:37;99995.00;;;4.56;100.00
48563;BME280;34981;49.104;11.396;2023-04-21T03:54:04;99993.19;;;4.57;100.00
48563;BME280;34981;49.104;11.396;2023-04-21T03:56:31;99978.94;;;4.37;100.00
48563;BME280;34981;49.104;11.396;2023-04-21T03:58:58;99970.44;;;4.22;100.00
48563;BME280;34981;49.104;11.396;2023-04-21T04:01:25;99954.16;;;4.16;100.00
48563;BME280;34981;49.104;11.396;2023-04-21T04:03:52;99964.47;;;4.30;100.00
48563;BME280;34981;49.104;11.396;2023-04-21T04:06:20;99969.69;;;4.41;100.00
48563;BME280;34981;49.104;11.396;2023-04-21T04:08:47;99956.47;;;4.30;100.00
48563;BME280;34981;49.104;11.396;2023-04-21T04:11:14;99974.25;;;4.50;100.00
48563;BME280;34981;49.104;11.396;2023-04-21T04:13:41;99915.88;;;4.17;100.00
48563;BME280;34981;49.104;11.396;2023-04-21T04:16:08;99935.16;;;4.30;100.00
48563;BME280;34981;49.104;11.396;2023-04-21T04:18:36;99946.50;;;4.53;100.00
48563;BME280;34981;49.104;11.396;2023-04-21T04:21:06;99953.09;;;4.58;100.00
48563;BME280;34981;49.104;11.396;2023-04-21T04:23:33;99958.31;;;4.69;100.00
48563;BME280;34981;49.104;11.396;2023-04-21T04:26:00;99960.44;;;4.76;100.00
48563;BME280;34981;49.104;11.396;2023-04-21T04:28:30;99958.50;;;4.78;100.00
48563;BME280;34981;49.104;11.396;2023-04-21T04:30:58;99954.69;;;4.70;100.00
48563;BME280;34981;49.104;11.396;2023-04-21T04:33:26;99948.13;;;4.75;100.00
48563;BME280;34981;49.104;11.396;2023-04-21T04:35:53;99938.69;;;4.70;100.00
48563;BME280;34981;49.104;11.396;2023-04-21T04:38:20;99933.59;;;4.58;100.00
48563;BME280;34981;49.104;11.396;2023-04-21T04:40:52;99941.66;;;4.67;100.00
48563;BME280;34981;49.104;11.396;2023-04-21T04:43:19;99937.59;;;4.73;100.00
48563;BME280;34981;49.104;11.396;2023-04-21T04:45:47;99938.72;;;4.80;100.00
48563;BME280;34981;49.104;11.396;2023-04-21T04:48:14;99925.53;;;4.79;100.00
48563;BME280;34981;49.104;11.396;2023-04-21T04:50:41;99922.03;;;4.78;100.00
48563;BME280;34981;49.104;11.396;2023-04-21T04:53:09;99925.66;;;4.77;100.00
48563;BME280;34981;49.104;11.396;2023-04-21T04:55:36;99921.59;;;4.83;100.00
48563;BME280;34981;49.104;11.396;2023-04-21T04:58:04;99916.28;;;4.83;100.00
48563;BME280;34981;49.104;11.396;2023-04-21T05:00:31;99908.44;;;4.91;100.00
48563;BME280;34981;49.104;11.396;2023-04-21T05:02:58;99940.34;;;5.21;100.00
48563;BME280;34981;49.104;11.396;2023-04-21T05:05:25;99949.53;;;5.38;100.00
48563;BME280;34981;49.104;11.396;2023-04-21T05:07:52;99944.56;;;5.33;100.00
48563;BME280;34981;49.104;11.396;2023-04-21T05:10:20;99994.66;;;5.89;100.00
48563;BME280;34981;49.104;11.396;2023-04-21T05:12:47;100001.53;;;6.01;100.00
48563;BME280;34981;49.104;11.396;2023-04-21T05:15:14;99980.47;;;5.89;100.00
48563;BME280;34981;49.104;11.396;2023-04-21T05:17:41;100001.84;;;5.98;100.00
48563;BME280;34981;49.104;11.396;2023-04-21T05:20:09;100013.06;;;6.11;100.00
48563;BME280;34981;49.104;11.396;2023-04-21T05:22:37;100019.53;;;6.18;100.00
48563;BME280;34981;49.104;11.396;2023-04-21T05:25:04;99997.88;;;6.02;100.00
48563;BME280;34981;49.104;11.396;2023-04-21T05:27:31;100017.97;;;6.16;100.00
48563;BME280;34981;49.104;11.396;2023-04-21T05:30:00;100007.88;;;6.19;100.00
48563;BME280;34981;49.104;11.396;2023-04-21T05:32:27;100000.13;;;6.16;100.00
48563;BME280;34981;49.104;11.396;2023-04-21T05:34:55;99999.28;;;6.16;100.00
48563;BME280;34981;49.104;11.396;2023-04-21T05:37:22;99976.66;;;6.01;100.00
48563;BME280;34981;49.104;11.396;2023-04-21T05:39:50;99969.09;;;5.96;100.00
48563;BME280;34981;49.104;11.396;2023-04-21T05:42:17;99982.00;;;6.10;100.00
48563;BME280;34981;49.104;11.396;2023-04-21T05:44:44;99972.28;;;6.09;100.00
48563;BME280;34981;49.104;11.396;2023-04-21T05:47:11;99994.63;;;6.28;100.00
48563;BME280;34981;49.104;11.396;2023-04-21T05:49:38;100006.81;;;6.49;100.00
48563;BME280;34981;49.104;11.396;2023-04-21T05:52:08;100003.97;;;6.51;100.00
48563;BME280;34981;49.104;11.396;2023-04-21T05:54:35;100002.84;;;6.63;100.00
48563;BME280;34981;49.104;11.396;2023-04-21T05:57:02;100027.50;;;6.94;100.00
48563;BME280;34981;49.104;11.396;2023-04-21T05:59:29;100045.19;;;7.32;100.00
48563;BME280;34981;49.104;11.396;2023-04-21T06:01:56;100098.72;;;8.04;100.00
48563;BME280;34981;49.104;11.396;2023-04-21T06:04:24;100082.59;;;8.14;100.00
48563;BME280;34981;49.104;11.396;2023-04-21T06:06:51;100165.94;;;9.17;100.00
48563;BME280;34981;49.104;11.396;2023-04-21T06:09:19;100182.75;;;9.87;100.00
48563;BME280;34981;49.104;11.396;2023-04-21T06:11:46;100088.50;;;9.30;100.00
48563;BME280;34981;49.104;11.396;2023-04-21T06:14:13;100058.25;;;9.28;100.00
48563;BME280;34981;49.104;11.396;2023-04-21T06:16:40;100017.56;;;9.07;100.00
48563;BME280;34981;49.104;11.396;2023-04-21T06:19:07;99985.91;;;8.85;100.00
48563;BME280;34981;49.104;11.396;2023-04-21T06:21:35;100153.09;;;10.96;100.00
48563;BME280;34981;49.104;11.396;2023-04-21T06:24:02;100155.22;;;11.88;100.00
48563;BME280;34981;49.104;11.396;2023-04-21T06:26:29;100062.09;;;11.38;100.00
48563;BME280;34981;49.104;11.396;2023-04-21T06:28:56;99954.50;;;10.18;100.00
48563;BME280;34981;49.104;11.396;2023-04-21T06:31:23;99910.28;;;9.40;100.00
48563;BME280;34981;49.104;11.396;2023-04-21T06:33:50;99948.78;;;9.89;100.00
48563;BME280;34981;49.104;11.396;2023-04-21T06:36:18;99928.13;;;9.81;100.00
48563;BME280;34981;49.104;11.396;2023-04-21T06:38:45;99935.69;;;9.86;100.00
48563;BME280;34981;49.104;11.396;2023-04-21T06:41:12;99928.78;;;9.83;100.00
48563;BME280;34981;49.104;11.396;2023-04-21T06:43:39;99950.97;;;10.26;100.00
48563;BME280;34981;49.104;11.396;2023-04-21T06:46:07;99903.44;;;9.77;100.00
48563;BME280;34981;49.104;11.396;2023-04-21T06:48:34;99930.44;;;10.16;100.00
48563;BME280;34981;49.104;11.396;2023-04-21T06:51:01;99922.06;;;10.11;100.00
48563;BME280;34981;49.104;11.396;2023-04-21T06:53:28;99897.22;;;9.93;100.00
48563;BME280;34981;49.104;11.396;2023-04-21T06:55:55;99939.19;;;10.51;100.00
48563;BME280;34981;49.104;11.396;2023-04-21T06:58:23;99943.50;;;10.68;100.00
48563;BME280;34981;49.104;11.396;2023-04-21T07:00:50;99928.22;;;10.61;100.00
48563;BME280;34981;49.104;11.396;2023-04-21T07:03:17;100002.09;;;11.44;100.00
48563;BME280;34981;49.104;11.396;2023-04-21T07:05:44;99902.03;;;10.93;100.00
48563;BME280;34981;49.104;11.396;2023-04-21T07:08:13;99959.69;;;11.38;100.00
48563;BME280;34981;49.104;11.396;2023-04-21T07:10:40;99907.94;;;11.20;100.00
48563;BME280;34981;49.104;11.396;2023-04-21T07:13:07;99952.13;;;11.64;100.00
48563;BME280;34981;49.104;11.396;2023-04-21T07:15:36;99893.19;;;11.08;100.00
48563;BME280;34981;49.104;11.396;2023-04-21T07:18:03;99911.47;;;11.20;100.00
48563;BME280;34981;49.104;11.396;2023-04-21T07:20:30;99861.03;;;10.75;100.00
48563;BME280;34981;49.104;11.396;2023-04-21T07:22:57;99880.81;;;10.90;100.00
48563;BME280;34981;49.104;11.396;2023-04-21T07:25:24;99877.25;;;10.98;100.00
48563;BME280;34981;49.104;11.396;2023-04-21T07:27:52;99871.53;;;11.01;100.00
48563;BME280;34981;49.104;11.396;2023-04-21T07:30:19;99937.59;;;11.96;100.00
48563;BME280;34981;49.104;11.396;2023-04-21T07:32:46;99893.66;;;12.11;100.00
48563;BME280;34981;49.104;11.396;2023-04-21T07:35:14;99801.94;;;11.13;100.00
48563;BME280;34981;49.104;11.396;2023-04-21T07:37:41;99831.44;;;11.52;100.00
48563;BME280;34981;49.104;11.396;2023-04-21T07:40:08;99842.34;;;11.81;100.00
48563;BME280;34981;49.104;11.396;2023-04-21T07:42:36;99914.97;;;12.64;100.00
48563;BME280;34981;49.104;11.396;2023-04-21T07:45:03;99808.25;;;12.03;100.00
48563;BME280;34981;49.104;11.396;2023-04-21T07:47:31;99841.66;;;12.46;100.00
48563;BME280;34981;49.104;11.396;2023-04-21T07:49:58;99831.13;;;12.36;100.00
48563;BME280;34981;49.104;11.396;2023-04-21T07:52:25;99870.28;;;12.91;100.00
48563;BME280;34981;49.104;11.396;2023-04-21T07:54:52;99763.97;;;12.41;100.00
48563;BME280;34981;49.104;11.396;2023-04-21T07:57:20;99738.69;;;12.13;100.00
48563;BME280;34981;49.104;11.396;2023-04-21T07:59:47;99811.34;;;12.80;100.00
48563;BME280;34981;49.104;11.396;2023-04-21T08:02:14;99752.78;;;12.80;100.00
48563;BME280;34981;49.104;11.396;2023-04-21T08:04:42;99802.84;;;13.34;100.00
48563;BME280;34981;49.104;11.396;2023-04-21T08:07:09;99686.25;;;12.73;100.00
48563;BME280;34981;49.104;11.396;2023-04-21T08:09:37;99640.16;;;12.32;100.00
48563;BME280;34981;49.104;11.396;2023-04-21T08:12:04;99592.88;;;12.00;100.00
48563;BME280;34981;49.104;11.396;2023-04-21T08:14:31;99698.84;;;12.87;100.00
48563;BME280;34981;49.104;11.396;2023-04-21T08:16:58;99667.91;;;13.11;100.00
48563;BME280;34981;49.104;11.396;2023-04-21T08:19:25;99623.97;;;12.74;100.00
48563;BME280;34981;49.104;11.396;2023-04-21T08:21:53;99615.59;;;12.91;100.00
48563;BME280;34981;49.104;11.396;2023-04-21T08:24:20;99637.44;;;13.45;100.00
48563;BME280;34981;49.104;11.396;2023-04-21T08:26:47;99605.00;;;13.45;100.00
48563;BME280;34981;49.104;11.396;2023-04-21T08:29:14;99542.81;;;13.10;100.00
48563;BME280;34981;49.104;11.396;2023-04-21T08:31:42;99536.22;;;13.13;100.00
48563;BME280;34981;49.104;11.396;2023-04-21T08:34:09;99527.25;;;13.47;100.00
48563;BME280;34981;49.104;11.396;2023-04-21T08:36:36;99524.34;;;13.48;100.00
48563;BME280;34981;49.104;11.396;2023-04-21T08:39:03;99472.47;;;13.73;100.00
48563;BME280;34981;49.104;11.396;2023-04-21T08:41:31;99487.03;;;13.78;100.00
48563;BME280;34981;49.104;11.396;2023-04-21T08:43:58;99442.66;;;13.59;100.00
48563;BME280;34981;49.104;11.396;2023-04-21T08:46:26;99497.16;;;14.50;100.00
48563;BME280;34981;49.104;11.396;2023-04-21T08:48:53;99368.25;;;13.90;100.00
48563;BME280;34981;49.104;11.396;2023-04-21T08:51:21;99350.34;;;13.95;100.00
48563;BME280;34981;49.104;11.396;2023-04-21T08:53:49;99299.41;;;13.66;100.00
48563;BME280;34981;49.104;11.396;2023-04-21T08:56:18;99319.94;;;14.33;100.00
48563;BME280;34981;49.104;11.396;2023-04-21T08:58:45;99300.16;;;14.52;100.00
48563;BME280;34981;49.104;11.396;2023-04-21T09:01:12;99198.28;;;13.93;100.00
48563;BME280;34981;49.104;11.396;2023-04-21T09:03:39;99226.91;;;14.27;100.00
48563;BME280;34981;49.104;11.396;2023-04-21T09:06:07;99172.66;;;13.96;100.00
48563;BME280;34981;49.104;11.396;2023-04-21T09:08:36;99198.13;;;14.53;100.00
48563;BME280;34981;49.104;11.396;2023-04-21T09:11:04;99150.25;;;14.40;100.00
48563;BME280;34981;49.104;11.396;2023-04-21T09:13:35;99192.94;;;15.14;100.00
48563;BME280;34981;49.104;11.396;2023-04-21T09:16:04;99086.69;;;14.80;100.00
48563;BME280;34981;49.104;11.396;2023-04-21T09:18:35;99039.22;;;15.03;100.00
48563;BME280;34981;49.104;11.396;2023-04-21T09:21:10;98912.84;;;14.22;100.00
48563;BME280;34981;49.104;11.396;2023-04-21T09:23:38;98952.81;;;14.52;100.00
48563;BME280;34981;49.104;11.396;2023-04-21T09:26:05;98922.53;;;14.79;100.00
48563;BME280;34981;49.104;11.396;2023-04-21T09:28:33;98860.03;;;14.81;100.00
48563;BME280;34981;49.104;11.396;2023-04-21T09:31:00;98849.56;;;14.85;100.00
48563;BME280;34981;49.104;11.396;2023-04-21T09:33:27;98823.69;;;14.89;100.00
48563;BME280;34981;49.104;11.396;2023-04-21T09:36:19;98823.16;;;15.28;100.00
48563;BME280;34981;49.104;11.396;2023-04-21T09:41:40;98623.94;;;14.72;100.00
48563;BME280;34981;49.104;11.396;2023-04-21T09:44:07;98718.81;;;15.07;100.00
48563;BME280;34981;49.104;11.396;2023-04-21T09:46:35;98720.75;;;15.72;100.00
48563;BME280;34981;49.104;11.396;2023-04-21T09:49:03;98532.63;;;15.26;100.00
48563;BME280;34981;49.104;11.396;2023-04-21T09:51:30;98536.63;;;15.24;100.00
48563;BME280;34981;49.104;11.396;2023-04-21T09:54:18;98538.72;;;15.56;100.00
48563;BME280;34981;49.104;11.396;2023-04-21T09:56:52;98476.97;;;15.35;100.00
48563;BME280;34981;49.104;11.396;2023-04-21T09:59:19;98437.97;;;15.36;100.00
48563;BME280;34981;49.104;11.396;2023-04-21T10:01:50;98327.78;;;15.02;100.00
48563;BME280;34981;49.104;11.396;2023-04-21T10:04:19;98362.69;;;15.67;100.00
48563;BME280;34981;49.104;11.396;2023-04-21T10:06:49;98189.81;;;14.95;100.00
48563;BME280;34981;49.104;11.396;2023-04-21T10:09:17;98203.47;;;15.17;100.00
48563;BME280;34981;49.104;11.396;2023-04-21T10:11:46;98107.41;;;15.58;100.00
48563;BME280;34981;49.104;11.396;2023-04-21T10:14:13;98085.91;;;16.12;100.00
48563;BME280;34981;49.104;11.396;2023-04-21T10:16:41;97971.75;;;15.70;100.00
48563;BME280;34981;49.104;11.396;2023-04-21T10:19:24;97889.19;;;15.82;100.00
48563;BME280;34981;49.104;11.396;2023-04-21T10:21:54;97760.59;;;15.51;100.00
48563;BME280;34981;49.104;11.396;2023-04-21T10:24:23;97773.56;;;15.49;100.00
48563;BME280;34981;49.104;11.396;2023-04-21T10:26:55;97758.91;;;15.72;100.00
48563;BME280;34981;49.104;11.396;2023-04-21T10:29:28;97694.53;;;15.57;100.00
48563;BME280;34981;49.104;11.396;2023-04-21T10:32:29;97626.63;;;15.79;100.00
48563;BME280;34981;49.104;11.396;2023-04-21T10:34:57;97545.25;;;15.69;100.00
48563;BME280;34981;49.104;11.396;2023-04-21T10:37:24;97560.81;;;15.89;100.00
48563;BME280;34981;49.104;11.396;2023-04-21T10:39:52;97495.97;;;15.87;100.00
48563;BME280;34981;49.104;11.396;2023-04-21T10:42:22;97419.97;;;15.05;100.00
48563;BME280;34981;49.104;11.396;2023-04-21T10:47:36;97439.72;;;15.57;100.00
48563;BME280;34981;49.104;11.396;2023-04-21T10:50:11;97392.41;;;15.23;100.00
48563;BME280;34981;49.104;11.396;2023-04-21T10:52:38;97469.47;;;16.10;100.00
48563;BME280;34981;49.104;11.396;2023-04-21T10:55:09;97385.59;;;15.88;100.00
48563;BME280;34981;49.104;11.396;2023-04-21T10:57:39;97251.63;;;15.53;100.00
48563;BME280;34981;49.104;11.396;2023-04-21T11:00:08;97293.69;;;15.76;100.00
48563;BME280;34981;49.104;11.396;2023-04-21T11:02:36;97176.22;;;15.35;100.00
48563;BME280;34981;49.104;11.396;2023-04-21T11:05:07;97179.25;;;15.74;100.00
48563;BME280;34981;49.104;11.396;2023-04-21T11:07:35;97055.13;;;15.20;100.00
48563;BME280;34981;49.104;11.396;2023-04-21T11:10:03;97079.00;;;15.34;100.00
48563;BME280;34981;49.104;11.396;2023-04-21T11:12:31;97019.03;;;15.76;100.00
48563;BME280;34981;49.104;11.396;2023-04-21T11:15:02;96959.94;;;15.78;100.00
48563;BME280;34981;49.104;11.396;2023-04-21T11:17:29;96897.84;;;15.71;100.00
48563;BME280;34981;49.104;11.396;2023-04-21T11:19:57;96872.38;;;15.77;100.00
48563;BME280;34981;49.104;11.396;2023-04-21T11:22:25;96851.25;;;16.08;100.00
48563;BME280;34981;49.104;11.396;2023-04-21T11:24:53;96729.38;;;15.88;100.00
48563;BME280;34981;49.104;11.396;2023-04-21T11:27:24;96695.84;;;16.08;100.00
48563;BME280;34981;49.104;11.396;2023-04-21T11:29:52;96731.31;;;16.16;100.00
48563;BME280;34981;49.104;11.396;2023-04-21T11:32:19;96701.53;;;16.59;100.00
48563;BME280;34981;49.104;11.396;2023-04-21T11:34:46;96539.56;;;16.35;100.00
48563;BME280;34981;49.104;11.396;2023-04-21T11:37:14;96447.06;;;16.32;100.00
48563;BME280;34981;49.104;11.396;2023-04-21T11:39:42;96423.19;;;16.34;100.00
48563;BME280;34981;49.104;11.396;2023-04-21T11:42:10;96351.22;;;16.04;100.00
48563;BME280;34981;49.104;11.396;2023-04-21T11:44:41;96354.06;;;16.13;100.00
48563;BME280;34981;49.104;11.396;2023-04-21T11:47:15;96344.63;;;16.43;100.00
48563;BME280;34981;49.104;11.396;2023-04-21T11:49:43;96274.59;;;16.12;100.00
48563;BME280;34981;49.104;11.396;2023-04-21T11:52:18;96288.13;;;16.45;100.00
48563;BME280;34981;49.104;11.396;2023-04-21T11:54:45;96235.56;;;16.41;100.00
48563;BME280;34981;49.104;11.396;2023-04-21T11:57:16;96248.97;;;16.51;100.00
48563;BME280;34981;49.104;11.396;2023-04-21T11:59:44;96208.84;;;15.88;100.00
48563;BME280;34981;49.104;11.396;2023-04-21T12:02:12;96222.13;;;16.35;100.00
48563;BME280;34981;49.104;11.396;2023-04-21T12:04:55;96142.09;;;16.06;100.00
48563;BME280;34981;49.104;11.396;2023-04-21T12:07:23;96119.50;;;16.24;100.00
48563;BME280;34981;49.104;11.396;2023-04-21T12:09:50;96081.81;;;15.81;100.00
48563;BME280;34981;49.104;11.396;2023-04-21T12:12:18;96111.97;;;16.34;100.00
48563;BME280;34981;49.104;11.396;2023-04-21T12:14:45;96082.41;;;16.47;100.00
48563;BME280;34981;49.104;11.396;2023-04-21T12:17:12;96022.84;;;16.42;100.00
48563;BME280;34981;49.104;11.396;2023-04-21T12:19:40;95935.56;;;16.26;100.00
48563;BME280;34981;49.104;11.396;2023-04-21T12:22:08;95891.31;;;16.03;100.00
48563;BME280;34981;49.104;11.396;2023-04-21T12:24:35;95896.28;;;16.23;100.00
48563;BME280;34981;49.104;11.396;2023-04-21T12:27:03;95877.06;;;16.33;100.00
48563;BME280;34981;49.104;11.396;2023-04-21T12:29:30;95831.25;;;16.32;100.00
48563;BME280;34981;49.104;11.396;2023-04-21T12:31:58;95733.91;;;16.30;100.00
48563;BME280;34981;49.104;11.396;2023-04-21T12:34:25;95685.75;;;16.05;100.00
48563;BME280;34981;49.104;11.396;2023-04-21T12:36:52;95722.97;;;15.91;100.00
48563;BME280;34981;49.104;11.396;2023-04-21T12:39:19;95691.75;;;16.24;100.00
48563;BME280;34981;49.104;11.396;2023-04-21T12:41:47;95678.78;;;16.52;100.00
48563;BME280;34981;49.104;11.396;2023-04-21T12:44:15;95618.00;;;16.22;100.00
48563;BME280;34981;49.104;11.396;2023-04-21T12:46:42;95638.03;;;16.35;100.00
48563;BME280;34981;49.104;11.396;2023-04-21T12:49:09;95588.03;;;16.19;100.00
48563;BME280;34981;49.104;11.396;2023-04-21T12:51:37;95636.78;;;16.41;100.00
48563;BME280;34981;49.104;11.396;2023-04-21T12:54:04;95599.16;;;16.57;100.00
48563;BME280;34981;49.104;11.396;2023-04-21T12:56:32;95561.25;;;16.26;100.00
48563;BME280;34981;49.104;11.396;2023-04-21T12:58:59;95544.72;;;15.96;100.00
48563;BME280;34981;49.104;11.396;2023-04-21T13:01:26;95509.75;;;16.34;100.00
48563;BME280;34981;49.104;11.396;2023-04-21T13:03:53;95453.41;;;16.31;100.00